Sunday, December 17, 2017, 4:20 PM EST
Back to Local

KAVP, Wilkes-barre/scranton International

Location: Pittston, PA, United States Lat: 41.333
Local Time: 4:20 PM EST (21:20 GMT) Lon: -75.733
Time Zone: US/Eastern Elev: 961 ft

Show me the last for .
Show Coded

Time T Td Feel RH Dir Speed Gust Alt SLP Vis Weather Sky Remarks
2017-12-17 15:54 31 23 - 72 - Calm - 30.17 30.19 7 CLR None
2017-12-17 14:54 32 24 - 72 - Calm - 30.18 30.20 7 CLR None
2017-12-17 13:54 32 23 29 68 20° 3 - 30.18 30.21 7 CLR None
2017-12-17 12:54 31 23 - 72 - Calm - 30.20 30.22 8 CLR 6-hr Min Temp (1pm): 27.0°F
6-hr Max Temp (1pm): 30.9°F
2017-12-17 11:54 30 22 - 71 - Calm - 30.22 30.24 9 CLR None
2017-12-17 10:54 29 21 24 71 10° 5 - 30.23 30.26 8 SCT038 None
2017-12-17 09:54 28 21 23 74 40° 5 - 30.25 30.27 8 OVC038 None
2017-12-17 08:54 27 21 - 77 - Calm - 30.24 30.27 8 OVC030 None
2017-12-17 07:54 27 21 23 77 20° 3 - 30.24 30.26 9 OVC028 None
2017-12-17 06:54 27 21 - 77 - Calm - 30.23 30.26 9 OVC026 24-hr Precip Total (7am): 0.01"
6-hr Min Temp (7am): 26.1°F
6-hr Max Temp (7am): 28.0°F
2017-12-17 05:54 27 21 20 77 30° 6 - 30.21 30.23 9 OVC026 None
2017-12-17 04:54 27 22 22 80 40° 5 - 30.20 30.22 9 BKN020 OVC025 None
2017-12-17 03:54 27 22 23 80 50° 3 - 30.22 30.24 9 OVC018 None
2017-12-17 02:54 28 22 - 77 - Calm - 30.20 30.23 9 OVC018 None
2017-12-17 01:54 27 22 - 80 - Calm - 30.18 30.21 10 OVC018 None
2017-12-17 00:54 28 21 - 74 - Calm - 30.16 30.19 10 OVC019 6-hr Min Temp (1am): 28.0°F
6-hr Max Temp (1am): 30.0°F
2017-12-16 23:54 28 21 - 74 - Calm - 30.17 30.19 10 OVC018 24-hr Min Temp (12am): 15.1°F
24-hr Max Temp (12am): 32.0°F
2017-12-16 22:54 28 21 22 74 10° 6 - 30.15 30.17 10 OVC022 None
2017-12-16 21:54 29 23 23 78 360° 6 - 30.15 30.17 10 OVC026 None
2017-12-16 20:54 29 23 22 78 350° 7 - 30.13 30.16 10 OVC027 None
2017-12-16 20:23 29 23 21 78 350° 8 - 30.13 - 9 SCT014 OVC027 None
2017-12-16 20:07 29 24 23 81 350° 6 - 30.13 - 9 BKN014 OVC027 None
2017-12-16 19:54 30 24 22 78 340° 9 - 30.12 30.15 9 FEW016 OVC027 None
2017-12-16 18:54 30 25 25 81 60° 5 - 30.09 30.12 9 SCT016 OVC029 1-hr Precip Total: Trace
6-hr Precip Total (7pm): 0.01"
6-hr Min Temp (7pm): 30.0°F
6-hr Max Temp (7pm): 32.0°F
2017-12-16 17:54 30 26 24 84 360° 6 - 30.05 30.08 6 -SN BR OVC023 1-hr Precip Total: 0.01"
2017-12-16 16:54 32 26 26 78 300° 6 - 30.00 30.03 4 -SN OVC024 1-hr Precip Total: Trace
2017-12-16 16:41 32 25 27 74 310° 5 - 29.99 - 5 -SN BKN025 OVC033 1-hr Precip Total: Trace

Support USWX by starting your Amazon purchase here.